sensor_id;sensor_type;location;lat;lon;timestamp;P1;durP1;ratioP1;P2;durP2;ratioP2
75823;SDS011;64457;51.976;9.834;2023-04-24T00:02:03;6.90;;;1.80;;
75823;SDS011;64457;51.976;9.834;2023-04-24T00:04:36;8.53;;;2.00;;
75823;SDS011;64457;51.976;9.834;2023-04-24T00:07:05;7.43;;;2.00;;
75823;SDS011;64457;51.976;9.834;2023-04-24T00:09:36;8.20;;;1.87;;
75823;SDS011;64457;51.976;9.834;2023-04-24T00:12:05;7.20;;;1.90;;
75823;SDS011;64457;51.976;9.834;2023-04-24T00:14:34;7.40;;;2.00;;
75823;SDS011;64457;51.976;9.834;2023-04-24T00:17:02;6.73;;;1.80;;
75823;SDS011;64457;51.976;9.834;2023-04-24T00:19:30;7.13;;;2.00;;
75823;SDS011;64457;51.976;9.834;2023-04-24T00:21:59;6.57;;;1.83;;
75823;SDS011;64457;51.976;9.834;2023-04-24T00:24:29;7.20;;;2.07;;
75823;SDS011;64457;51.976;9.834;2023-04-24T00:26:59;8.47;;;1.83;;
75823;SDS011;64457;51.976;9.834;2023-04-24T00:29:27;7.27;;;1.60;;
75823;SDS011;64457;51.976;9.834;2023-04-24T00:31:57;7.20;;;2.00;;
75823;SDS011;64457;51.976;9.834;2023-04-24T00:34:24;9.13;;;2.20;;
75823;SDS011;64457;51.976;9.834;2023-04-24T00:36:52;8.90;;;2.00;;
75823;SDS011;64457;51.976;9.834;2023-04-24T00:39:20;7.00;;;2.17;;
75823;SDS011;64457;51.976;9.834;2023-04-24T00:41:48;7.07;;;2.17;;
75823;SDS011;64457;51.976;9.834;2023-04-24T00:44:16;8.93;;;2.30;;
75823;SDS011;64457;51.976;9.834;2023-04-24T00:46:44;9.50;;;2.00;;
75823;SDS011;64457;51.976;9.834;2023-04-24T00:49:19;7.40;;;1.83;;
75823;SDS011;64457;51.976;9.834;2023-04-24T00:51:48;7.60;;;2.37;;
75823;SDS011;64457;51.976;9.834;2023-04-24T00:54:16;7.60;;;2.40;;
75823;SDS011;64457;51.976;9.834;2023-04-24T00:56:45;8.60;;;2.07;;
75823;SDS011;64457;51.976;9.834;2023-04-24T00:59:14;7.90;;;2.33;;
75823;SDS011;64457;51.976;9.834;2023-04-24T01:01:44;7.47;;;2.10;;
75823;SDS011;64457;51.976;9.834;2023-04-24T01:04:15;7.87;;;2.37;;
75823;SDS011;64457;51.976;9.834;2023-04-24T01:06:46;9.30;;;2.40;;
75823;SDS011;64457;51.976;9.834;2023-04-24T01:09:15;7.60;;;2.30;;
75823;SDS011;64457;51.976;9.834;2023-04-24T01:11:44;7.47;;;2.30;;
75823;SDS011;64457;51.976;9.834;2023-04-24T01:14:12;7.33;;;2.37;;
75823;SDS011;64457;51.976;9.834;2023-04-24T01:16:39;7.50;;;2.17;;
75823;SDS011;64457;51.976;9.834;2023-04-24T01:19:07;7.27;;;2.07;;
75823;SDS011;64457;51.976;9.834;2023-04-24T01:21:38;9.93;;;2.13;;
75823;SDS011;64457;51.976;9.834;2023-04-24T01:24:09;10.80;;;2.20;;
75823;SDS011;64457;51.976;9.834;2023-04-24T01:26:40;9.90;;;2.30;;
75823;SDS011;64457;51.976;9.834;2023-04-24T01:29:09;6.80;;;1.90;;
75823;SDS011;64457;51.976;9.834;2023-04-24T01:31:36;8.87;;;2.10;;
75823;SDS011;64457;51.976;9.834;2023-04-24T01:34:04;8.97;;;2.10;;
75823;SDS011;64457;51.976;9.834;2023-04-24T01:36:33;7.10;;;1.90;;
75823;SDS011;64457;51.976;9.834;2023-04-24T01:39:02;7.23;;;1.80;;
75823;SDS011;64457;51.976;9.834;2023-04-24T01:41:32;7.90;;;1.60;;
75823;SDS011;64457;51.976;9.834;2023-04-24T01:44:00;6.50;;;1.50;;
75823;SDS011;64457;51.976;9.834;2023-04-24T01:46:29;8.00;;;2.23;;
75823;SDS011;64457;51.976;9.834;2023-04-24T01:48:57;6.57;;;1.70;;
75823;SDS011;64457;51.976;9.834;2023-04-24T01:51:27;12.43;;;1.83;;
75823;SDS011;64457;51.976;9.834;2023-04-24T01:53:55;7.43;;;1.50;;
75823;SDS011;64457;51.976;9.834;2023-04-24T01:56:24;6.90;;;1.80;;
75823;SDS011;64457;51.976;9.834;2023-04-24T01:58:54;8.97;;;1.80;;
75823;SDS011;64457;51.976;9.834;2023-04-24T02:01:23;6.90;;;1.60;;
75823;SDS011;64457;51.976;9.834;2023-04-24T02:03:50;7.23;;;1.60;;
75823;SDS011;64457;51.976;9.834;2023-04-24T02:06:19;7.00;;;1.57;;
75823;SDS011;64457;51.976;9.834;2023-04-24T02:08:47;7.57;;;1.50;;
75823;SDS011;64457;51.976;9.834;2023-04-24T02:11:15;9.73;;;1.70;;
75823;SDS011;64457;51.976;9.834;2023-04-24T02:13:43;8.43;;;1.53;;
75823;SDS011;64457;51.976;9.834;2023-04-24T02:16:12;6.50;;;1.43;;
75823;SDS011;64457;51.976;9.834;2023-04-24T02:18:40;6.30;;;1.47;;
75823;SDS011;64457;51.976;9.834;2023-04-24T02:21:07;6.47;;;1.53;;
75823;SDS011;64457;51.976;9.834;2023-04-24T02:23:35;6.30;;;1.57;;
75823;SDS011;64457;51.976;9.834;2023-04-24T02:26:03;7.60;;;1.80;;
75823;SDS011;64457;51.976;9.834;2023-04-24T02:28:31;6.30;;;1.30;;
75823;SDS011;64457;51.976;9.834;2023-04-24T02:30:58;6.10;;;1.53;;
75823;SDS011;64457;51.976;9.834;2023-04-24T02:33:28;5.73;;;1.23;;
75823;SDS011;64457;51.976;9.834;2023-04-24T02:35:56;6.50;;;1.50;;
75823;SDS011;64457;51.976;9.834;2023-04-24T02:38:23;6.67;;;1.50;;
75823;SDS011;64457;51.976;9.834;2023-04-24T02:40:52;6.90;;;1.40;;
75823;SDS011;64457;51.976;9.834;2023-04-24T02:43:21;6.93;;;1.53;;
75823;SDS011;64457;51.976;9.834;2023-04-24T02:45:50;5.90;;;1.20;;
75823;SDS011;64457;51.976;9.834;2023-04-24T02:48:18;6.00;;;1.37;;
75823;SDS011;64457;51.976;9.834;2023-04-24T02:50:48;6.63;;;1.30;;
75823;SDS011;64457;51.976;9.834;2023-04-24T02:53:15;11.00;;;1.30;;
75823;SDS011;64457;51.976;9.834;2023-04-24T02:55:45;6.13;;;1.30;;
75823;SDS011;64457;51.976;9.834;2023-04-24T02:58:14;5.53;;;1.10;;
75823;SDS011;64457;51.976;9.834;2023-04-24T03:00:42;6.17;;;1.10;;
75823;SDS011;64457;51.976;9.834;2023-04-24T03:03:10;6.97;;;1.37;;
75823;SDS011;64457;51.976;9.834;2023-04-24T03:05:40;7.10;;;1.50;;
75823;SDS011;64457;51.976;9.834;2023-04-24T03:08:09;6.10;;;1.37;;
75823;SDS011;64457;51.976;9.834;2023-04-24T03:10:38;6.50;;;1.43;;
75823;SDS011;64457;51.976;9.834;2023-04-24T03:13:05;6.67;;;1.40;;
75823;SDS011;64457;51.976;9.834;2023-04-24T03:15:35;5.80;;;1.10;;
75823;SDS011;64457;51.976;9.834;2023-04-24T03:18:03;8.20;;;1.20;;
75823;SDS011;64457;51.976;9.834;2023-04-24T03:20:31;10.53;;;1.30;;
75823;SDS011;64457;51.976;9.834;2023-04-24T03:22:59;8.50;;;1.20;;
75823;SDS011;64457;51.976;9.834;2023-04-24T03:25:29;6.70;;;1.30;;
75823;SDS011;64457;51.976;9.834;2023-04-24T03:28:00;6.50;;;1.10;;
75823;SDS011;64457;51.976;9.834;2023-04-24T03:30:32;5.97;;;1.13;;
75823;SDS011;64457;51.976;9.834;2023-04-24T03:33:01;6.40;;;1.30;;
75823;SDS011;64457;51.976;9.834;2023-04-24T03:35:28;13.53;;;1.40;;
75823;SDS011;64457;51.976;9.834;2023-04-24T03:37:56;11.57;;;1.40;;
75823;SDS011;64457;51.976;9.834;2023-04-24T03:40:25;6.17;;;1.30;;
75823;SDS011;64457;51.976;9.834;2023-04-24T03:42:56;6.03;;;1.27;;
75823;SDS011;64457;51.976;9.834;2023-04-24T03:45:24;6.97;;;1.50;;
75823;SDS011;64457;51.976;9.834;2023-04-24T03:47:52;6.43;;;1.40;;
75823;SDS011;64457;51.976;9.834;2023-04-24T03:50:20;8.43;;;1.80;;
75823;SDS011;64457;51.976;9.834;2023-04-24T03:52:48;7.77;;;1.53;;
75823;SDS011;64457;51.976;9.834;2023-04-24T03:55:16;6.67;;;1.70;;
75823;SDS011;64457;51.976;9.834;2023-04-24T03:57:43;8.37;;;1.57;;
75823;SDS011;64457;51.976;9.834;2023-04-24T04:00:13;6.00;;;1.17;;
75823;SDS011;64457;51.976;9.834;2023-04-24T04:02:42;6.10;;;1.27;;
75823;SDS011;64457;51.976;9.834;2023-04-24T04:05:10;5.90;;;1.30;;
75823;SDS011;64457;51.976;9.834;2023-04-24T04:07:37;7.97;;;1.40;;
75823;SDS011;64457;51.976;9.834;2023-04-24T04:10:05;6.10;;;1.20;;
75823;SDS011;64457;51.976;9.834;2023-04-24T04:12:34;7.70;;;1.60;;
75823;SDS011;64457;51.976;9.834;2023-04-24T04:15:02;6.17;;;1.40;;
75823;SDS011;64457;51.976;9.834;2023-04-24T04:17:32;8.23;;;1.77;;
75823;SDS011;64457;51.976;9.834;2023-04-24T04:20:00;8.90;;;1.37;;
75823;SDS011;64457;51.976;9.834;2023-04-24T04:22:32;5.63;;;1.23;;
75823;SDS011;64457;51.976;9.834;2023-04-24T04:24:59;6.20;;;1.40;;
75823;SDS011;64457;51.976;9.834;2023-04-24T04:27:30;8.17;;;1.70;;
75823;SDS011;64457;51.976;9.834;2023-04-24T04:29:59;6.17;;;1.33;;
75823;SDS011;64457;51.976;9.834;2023-04-24T04:32:29;7.03;;;1.40;;
75823;SDS011;64457;51.976;9.834;2023-04-24T04:34:59;6.70;;;1.50;;
75823;SDS011;64457;51.976;9.834;2023-04-24T04:37:29;7.37;;;1.50;;
75823;SDS011;64457;51.976;9.834;2023-04-24T04:39:58;6.33;;;1.53;;
75823;SDS011;64457;51.976;9.834;2023-04-24T04:42:26;8.60;;;2.00;;
75823;SDS011;64457;51.976;9.834;2023-04-24T04:44:57;8.03;;;1.83;;
75823;SDS011;64457;51.976;9.834;2023-04-24T04:47:25;7.63;;;1.70;;
75823;SDS011;64457;51.976;9.834;2023-04-24T04:49:59;6.00;;;1.20;;
75823;SDS011;64457;51.976;9.834;2023-04-24T04:52:28;6.17;;;1.50;;
75823;SDS011;64457;51.976;9.834;2023-04-24T04:54:55;6.17;;;1.30;;
75823;SDS011;64457;51.976;9.834;2023-04-24T04:57:23;7.13;;;1.80;;
75823;SDS011;64457;51.976;9.834;2023-04-24T04:59:50;6.10;;;1.40;;
75823;SDS011;64457;51.976;9.834;2023-04-24T05:02:18;5.47;;;1.20;;
75823;SDS011;64457;51.976;9.834;2023-04-24T05:04:49;5.93;;;1.23;;
75823;SDS011;64457;51.976;9.834;2023-04-24T05:07:19;7.50;;;1.63;;
75823;SDS011;64457;51.976;9.834;2023-04-24T05:09:49;6.17;;;1.60;;
75823;SDS011;64457;51.976;9.834;2023-04-24T05:12:20;7.70;;;1.60;;
75823;SDS011;64457;51.976;9.834;2023-04-24T05:14:48;7.90;;;1.70;;
75823;SDS011;64457;51.976;9.834;2023-04-24T05:17:16;6.73;;;1.70;;
75823;SDS011;64457;51.976;9.834;2023-04-24T05:19:44;7.17;;;2.17;;
75823;SDS011;64457;51.976;9.834;2023-04-24T05:22:12;8.80;;;2.10;;
75823;SDS011;64457;51.976;9.834;2023-04-24T05:24:42;7.07;;;1.77;;
75823;SDS011;64457;51.976;9.834;2023-04-24T05:27:10;6.67;;;2.00;;
75823;SDS011;64457;51.976;9.834;2023-04-24T05:29:38;8.20;;;2.10;;
75823;SDS011;64457;51.976;9.834;2023-04-24T05:32:06;6.67;;;1.43;;
75823;SDS011;64457;51.976;9.834;2023-04-24T05:34:34;9.27;;;1.40;;
75823;SDS011;64457;51.976;9.834;2023-04-24T05:37:02;6.83;;;1.50;;
75823;SDS011;64457;51.976;9.834;2023-04-24T05:39:33;5.93;;;1.40;;
75823;SDS011;64457;51.976;9.834;2023-04-24T05:42:02;6.37;;;1.27;;
75823;SDS011;64457;51.976;9.834;2023-04-24T05:44:30;6.13;;;1.20;;
75823;SDS011;64457;51.976;9.834;2023-04-24T05:46:58;6.10;;;1.30;;
75823;SDS011;64457;51.976;9.834;2023-04-24T05:49:29;7.40;;;1.30;;
75823;SDS011;64457;51.976;9.834;2023-04-24T05:51:56;6.30;;;1.40;;
75823;SDS011;64457;51.976;9.834;2023-04-24T05:54:25;6.57;;;1.30;;
75823;SDS011;64457;51.976;9.834;2023-04-24T05:56:53;6.50;;;1.10;;
75823;SDS011;64457;51.976;9.834;2023-04-24T05:59:23;7.40;;;1.30;;
75823;SDS011;64457;51.976;9.834;2023-04-24T06:01:52;6.23;;;1.20;;
75823;SDS011;64457;51.976;9.834;2023-04-24T06:04:19;5.83;;;1.30;;
75823;SDS011;64457;51.976;9.834;2023-04-24T06:06:48;7.60;;;1.20;;
75823;SDS011;64457;51.976;9.834;2023-04-24T06:09:21;7.40;;;1.17;;
75823;SDS011;64457;51.976;9.834;2023-04-24T06:11:50;5.90;;;1.30;;
75823;SDS011;64457;51.976;9.834;2023-04-24T06:14:19;7.17;;;1.10;;
75823;SDS011;64457;51.976;9.834;2023-04-24T06:16:50;5.50;;;1.13;;
75823;SDS011;64457;51.976;9.834;2023-04-24T06:19:18;5.60;;;1.10;;
75823;SDS011;64457;51.976;9.834;2023-04-24T06:21:48;5.47;;;1.10;;
75823;SDS011;64457;51.976;9.834;2023-04-24T06:24:17;6.80;;;1.60;;
75823;SDS011;64457;51.976;9.834;2023-04-24T06:26:56;6.10;;;1.40;;
75823;SDS011;64457;51.976;9.834;2023-04-24T06:29:28;7.23;;;1.50;;
75823;SDS011;64457;51.976;9.834;2023-04-24T06:31:57;5.77;;;1.33;;
75823;SDS011;64457;51.976;9.834;2023-04-24T06:34:25;6.37;;;1.50;;
75823;SDS011;64457;51.976;9.834;2023-04-24T06:36:52;5.97;;;1.40;;
75823;SDS011;64457;51.976;9.834;2023-04-24T06:39:21;7.37;;;1.70;;
75823;SDS011;64457;51.976;9.834;2023-04-24T06:41:49;7.07;;;1.60;;
75823;SDS011;64457;51.976;9.834;2023-04-24T06:44:19;7.60;;;1.57;;
75823;SDS011;64457;51.976;9.834;2023-04-24T06:46:47;6.63;;;1.70;;
75823;SDS011;64457;51.976;9.834;2023-04-24T06:49:16;6.30;;;1.87;;
75823;SDS011;64457;51.976;9.834;2023-04-24T06:51:43;6.80;;;2.10;;
75823;SDS011;64457;51.976;9.834;2023-04-24T06:54:12;6.80;;;1.60;;
75823;SDS011;64457;51.976;9.834;2023-04-24T06:56:41;6.20;;;1.70;;
75823;SDS011;64457;51.976;9.834;2023-04-24T06:59:08;8.33;;;2.00;;
75823;SDS011;64457;51.976;9.834;2023-04-24T07:01:36;7.00;;;1.80;;
75823;SDS011;64457;51.976;9.834;2023-04-24T07:04:04;10.83;;;2.03;;
75823;SDS011;64457;51.976;9.834;2023-04-24T07:06:33;6.23;;;1.70;;
75823;SDS011;64457;51.976;9.834;2023-04-24T07:09:03;6.80;;;1.80;;
75823;SDS011;64457;51.976;9.834;2023-04-24T07:11:30;6.70;;;1.97;;
75823;SDS011;64457;51.976;9.834;2023-04-24T07:13:59;6.77;;;2.10;;
75823;SDS011;64457;51.976;9.834;2023-04-24T07:16:27;7.23;;;2.03;;
75823;SDS011;64457;51.976;9.834;2023-04-24T07:18:55;6.80;;;2.00;;
75823;SDS011;64457;51.976;9.834;2023-04-24T07:21:24;9.43;;;2.37;;
75823;SDS011;64457;51.976;9.834;2023-04-24T07:24:04;8.07;;;2.70;;
75823;SDS011;64457;51.976;9.834;2023-04-24T07:26:34;7.07;;;2.23;;
75823;SDS011;64457;51.976;9.834;2023-04-24T07:29:04;7.50;;;2.30;;
75823;SDS011;64457;51.976;9.834;2023-04-24T07:31:33;7.30;;;2.10;;
75823;SDS011;64457;51.976;9.834;2023-04-24T07:34:03;8.63;;;3.00;;
75823;SDS011;64457;51.976;9.834;2023-04-24T07:36:31;8.47;;;2.90;;
75823;SDS011;64457;51.976;9.834;2023-04-24T07:39:02;7.20;;;2.37;;
75823;SDS011;64457;51.976;9.834;2023-04-24T07:41:30;7.33;;;2.00;;
75823;SDS011;64457;51.976;9.834;2023-04-24T07:43:58;6.90;;;1.90;;
75823;SDS011;64457;51.976;9.834;2023-04-24T07:46:26;9.00;;;2.10;;
75823;SDS011;64457;51.976;9.834;2023-04-24T07:48:55;8.67;;;2.10;;
75823;SDS011;64457;51.976;9.834;2023-04-24T07:51:24;6.90;;;2.00;;
75823;SDS011;64457;51.976;9.834;2023-04-24T07:53:55;7.53;;;2.17;;
75823;SDS011;64457;51.976;9.834;2023-04-24T07:56:24;9.10;;;1.93;;
75823;SDS011;64457;51.976;9.834;2023-04-24T07:58:55;6.37;;;2.20;;
75823;SDS011;64457;51.976;9.834;2023-04-24T08:01:25;6.87;;;2.27;;
75823;SDS011;64457;51.976;9.834;2023-04-24T08:03:53;7.40;;;2.30;;
75823;SDS011;64457;51.976;9.834;2023-04-24T08:06:22;6.97;;;2.33;;
75823;SDS011;64457;51.976;9.834;2023-04-24T08:08:55;7.20;;;2.60;;
75823;SDS011;64457;51.976;9.834;2023-04-24T08:11:26;7.27;;;2.73;;
75823;SDS011;64457;51.976;9.834;2023-04-24T08:13:55;8.50;;;2.80;;
75823;SDS011;64457;51.976;9.834;2023-04-24T08:16:23;7.93;;;2.90;;
75823;SDS011;64457;51.976;9.834;2023-04-24T08:18:52;8.30;;;2.97;;
75823;SDS011;64457;51.976;9.834;2023-04-24T08:21:20;7.77;;;2.90;;
75823;SDS011;64457;51.976;9.834;2023-04-24T08:23:48;9.93;;;2.93;;
75823;SDS011;64457;51.976;9.834;2023-04-24T08:26:17;7.80;;;2.87;;
75823;SDS011;64457;51.976;9.834;2023-04-24T08:28:45;9.50;;;3.80;;
75823;SDS011;64457;51.976;9.834;2023-04-24T08:31:14;10.37;;;3.83;;
75823;SDS011;64457;51.976;9.834;2023-04-24T08:33:41;9.20;;;3.70;;
75823;SDS011;64457;51.976;9.834;2023-04-24T08:36:12;9.53;;;3.20;;
75823;SDS011;64457;51.976;9.834;2023-04-24T08:38:42;8.40;;;3.30;;
75823;SDS011;64457;51.976;9.834;2023-04-24T08:41:11;8.70;;;3.30;;
75823;SDS011;64457;51.976;9.834;2023-04-24T08:43:43;9.70;;;4.03;;
75823;SDS011;64457;51.976;9.834;2023-04-24T08:46:15;11.00;;;3.03;;
75823;SDS011;64457;51.976;9.834;2023-04-24T08:48:44;9.17;;;2.93;;
75823;SDS011;64457;51.976;9.834;2023-04-24T08:51:12;9.50;;;3.23;;
75823;SDS011;64457;51.976;9.834;2023-04-24T08:53:42;9.50;;;4.00;;
75823;SDS011;64457;51.976;9.834;2023-04-24T08:56:10;8.60;;;3.30;;
75823;SDS011;64457;51.976;9.834;2023-04-24T08:58:39;7.70;;;2.80;;
75823;SDS011;64457;51.976;9.834;2023-04-24T09:01:10;7.97;;;3.37;;
75823;SDS011;64457;51.976;9.834;2023-04-24T09:03:38;10.00;;;3.60;;
75823;SDS011;64457;51.976;9.834;2023-04-24T09:06:06;7.80;;;2.90;;
75823;SDS011;64457;51.976;9.834;2023-04-24T09:08:36;10.57;;;3.10;;
75823;SDS011;64457;51.976;9.834;2023-04-24T09:11:05;7.63;;;3.03;;
75823;SDS011;64457;51.976;9.834;2023-04-24T09:13:35;7.83;;;3.00;;
75823;SDS011;64457;51.976;9.834;2023-04-24T09:16:03;8.03;;;2.80;;
75823;SDS011;64457;51.976;9.834;2023-04-24T09:18:33;9.10;;;3.40;;
75823;SDS011;64457;51.976;9.834;2023-04-24T09:21:01;8.00;;;3.07;;
75823;SDS011;64457;51.976;9.834;2023-04-24T09:23:33;9.50;;;3.30;;
75823;SDS011;64457;51.976;9.834;2023-04-24T09:26:02;7.60;;;2.80;;
75823;SDS011;64457;51.976;9.834;2023-04-24T09:28:34;7.30;;;2.70;;
75823;SDS011;64457;51.976;9.834;2023-04-24T09:31:05;9.80;;;2.97;;
75823;SDS011;64457;51.976;9.834;2023-04-24T09:33:36;9.23;;;3.27;;
75823;SDS011;64457;51.976;9.834;2023-04-24T09:36:05;7.70;;;3.00;;
75823;SDS011;64457;51.976;9.834;2023-04-24T09:38:35;7.90;;;2.90;;
75823;SDS011;64457;51.976;9.834;2023-04-24T09:41:06;8.77;;;2.93;;
75823;SDS011;64457;51.976;9.834;2023-04-24T09:43:35;8.73;;;2.90;;
75823;SDS011;64457;51.976;9.834;2023-04-24T09:46:05;7.40;;;2.60;;
75823;SDS011;64457;51.976;9.834;2023-04-24T09:48:37;8.13;;;2.87;;
75823;SDS011;64457;51.976;9.834;2023-04-24T09:51:06;7.00;;;2.20;;
75823;SDS011;64457;51.976;9.834;2023-04-24T09:53:35;10.50;;;2.30;;
75823;SDS011;64457;51.976;9.834;2023-04-24T09:56:06;6.60;;;2.10;;
75823;SDS011;64457;51.976;9.834;2023-04-24T09:58:38;8.03;;;2.60;;
75823;SDS011;64457;51.976;9.834;2023-04-24T10:01:06;8.13;;;2.90;;
75823;SDS011;64457;51.976;9.834;2023-04-24T10:03:33;7.23;;;2.40;;
75823;SDS011;64457;51.976;9.834;2023-04-24T10:06:04;8.00;;;3.10;;
75823;SDS011;64457;51.976;9.834;2023-04-24T10:08:34;8.30;;;3.30;;
75823;SDS011;64457;51.976;9.834;2023-04-24T10:11:03;7.33;;;2.63;;
75823;SDS011;64457;51.976;9.834;2023-04-24T10:13:32;7.50;;;3.00;;
75823;SDS011;64457;51.976;9.834;2023-04-24T10:16:02;8.67;;;3.07;;
75823;SDS011;64457;51.976;9.834;2023-04-24T10:18:31;7.80;;;2.93;;
75823;SDS011;64457;51.976;9.834;2023-04-24T10:21:01;9.10;;;3.27;;
75823;SDS011;64457;51.976;9.834;2023-04-24T10:23:29;7.30;;;2.80;;
75823;SDS011;64457;51.976;9.834;2023-04-24T10:25:57;7.27;;;2.73;;
75823;SDS011;64457;51.976;9.834;2023-04-24T10:28:26;8.07;;;3.00;;
75823;SDS011;64457;51.976;9.834;2023-04-24T10:30:56;13.53;;;2.87;;
75823;SDS011;64457;51.976;9.834;2023-04-24T10:33:27;8.90;;;3.13;;
75823;SDS011;64457;51.976;9.834;2023-04-24T10:35:57;8.70;;;2.87;;
75823;SDS011;64457;51.976;9.834;2023-04-24T10:38:27;8.53;;;2.73;;
75823;SDS011;64457;51.976;9.834;2023-04-24T10:40:57;8.07;;;2.73;;
75823;SDS011;64457;51.976;9.834;2023-04-24T10:43:34;8.23;;;2.80;;
75823;SDS011;64457;51.976;9.834;2023-04-24T10:46:03;7.57;;;2.20;;
75823;SDS011;64457;51.976;9.834;2023-04-24T10:48:33;7.17;;;2.30;;
75823;SDS011;64457;51.976;9.834;2023-04-24T10:51:04;6.83;;;2.00;;
75823;SDS011;64457;51.976;9.834;2023-04-24T10:53:32;6.10;;;1.70;;
75823;SDS011;64457;51.976;9.834;2023-04-24T10:56:03;6.50;;;2.10;;
75823;SDS011;64457;51.976;9.834;2023-04-24T10:58:38;7.63;;;2.40;;
75823;SDS011;64457;51.976;9.834;2023-04-24T11:01:11;13.30;;;2.57;;
75823;SDS011;64457;51.976;9.834;2023-04-24T11:03:54;5.93;;;1.80;;
75823;SDS011;64457;51.976;9.834;2023-04-24T11:06:31;7.10;;;1.90;;
75823;SDS011;64457;51.976;9.834;2023-04-24T11:09:04;6.67;;;1.90;;
75823;SDS011;64457;51.976;9.834;2023-04-24T11:11:34;6.20;;;2.00;;
75823;SDS011;64457;51.976;9.834;2023-04-24T11:14:06;6.97;;;2.00;;
75823;SDS011;64457;51.976;9.834;2023-04-24T11:16:35;6.50;;;1.60;;
75823;SDS011;64457;51.976;9.834;2023-04-24T11:19:11;6.00;;;1.43;;
75823;SDS011;64457;51.976;9.834;2023-04-24T11:21:55;6.73;;;1.57;;
75823;SDS011;64457;51.976;9.834;2023-04-24T11:24:28;6.10;;;1.60;;
75823;SDS011;64457;51.976;9.834;2023-04-24T11:27:06;5.80;;;1.60;;
75823;SDS011;64457;51.976;9.834;2023-04-24T11:29:44;6.50;;;2.20;;
75823;SDS011;64457;51.976;9.834;2023-04-24T11:32:17;7.60;;;2.30;;
75823;SDS011;64457;51.976;9.834;2023-04-24T11:34:53;6.80;;;2.20;;
75823;SDS011;64457;51.976;9.834;2023-04-24T11:37:32;8.43;;;2.43;;
75823;SDS011;64457;51.976;9.834;2023-04-24T11:40:02;5.93;;;1.90;;
75823;SDS011;64457;51.976;9.834;2023-04-24T11:42:36;5.60;;;1.57;;
75823;SDS011;64457;51.976;9.834;2023-04-24T11:45:09;6.47;;;1.63;;
75823;SDS011;64457;51.976;9.834;2023-04-24T11:47:39;7.23;;;2.07;;
75823;SDS011;64457;51.976;9.834;2023-04-24T11:50:10;7.20;;;1.83;;
75823;SDS011;64457;51.976;9.834;2023-04-24T11:52:42;6.50;;;1.70;;
75823;SDS011;64457;51.976;9.834;2023-04-24T11:55:22;7.60;;;1.80;;
75823;SDS011;64457;51.976;9.834;2023-04-24T11:57:54;6.67;;;1.67;;
75823;SDS011;64457;51.976;9.834;2023-04-24T12:00:27;5.60;;;1.40;;
75823;SDS011;64457;51.976;9.834;2023-04-24T12:03:03;6.50;;;1.17;;
75823;SDS011;64457;51.976;9.834;2023-04-24T12:05:36;5.63;;;1.10;;
75823;SDS011;64457;51.976;9.834;2023-04-24T12:08:06;5.13;;;1.17;;
75823;SDS011;64457;51.976;9.834;2023-04-24T12:10:35;6.20;;;1.17;;
75823;SDS011;64457;51.976;9.834;2023-04-24T12:13:09;5.80;;;1.30;;
75823;SDS011;64457;51.976;9.834;2023-04-24T12:15:39;5.33;;;1.10;;
75823;SDS011;64457;51.976;9.834;2023-04-24T12:18:07;6.13;;;1.23;;
75823;SDS011;64457;51.976;9.834;2023-04-24T12:20:40;5.43;;;1.20;;
75823;SDS011;64457;51.976;9.834;2023-04-24T12:23:09;5.40;;;1.17;;
75823;SDS011;64457;51.976;9.834;2023-04-24T12:25:38;5.30;;;1.20;;
75823;SDS011;64457;51.976;9.834;2023-04-24T12:28:10;5.30;;;1.23;;
75823;SDS011;64457;51.976;9.834;2023-04-24T12:30:41;5.73;;;1.07;;
75823;SDS011;64457;51.976;9.834;2023-04-24T12:33:11;5.10;;;1.10;;
75823;SDS011;64457;51.976;9.834;2023-04-24T12:35:40;5.40;;;1.00;;
75823;SDS011;64457;51.976;9.834;2023-04-24T12:38:08;5.20;;;0.80;;
75823;SDS011;64457;51.976;9.834;2023-04-24T12:40:41;5.00;;;0.90;;
75823;SDS011;64457;51.976;9.834;2023-04-24T12:43:14;5.50;;;1.10;;
75823;SDS011;64457;51.976;9.834;2023-04-24T12:45:43;5.47;;;1.20;;
75823;SDS011;64457;51.976;9.834;2023-04-24T12:48:11;6.13;;;1.93;;
75823;SDS011;64457;51.976;9.834;2023-04-24T12:50:39;6.10;;;1.70;;
75823;SDS011;64457;51.976;9.834;2023-04-24T12:53:09;6.30;;;1.50;;
75823;SDS011;64457;51.976;9.834;2023-04-24T12:55:37;5.90;;;1.60;;
75823;SDS011;64457;51.976;9.834;2023-04-24T12:58:06;6.33;;;1.40;;
75823;SDS011;64457;51.976;9.834;2023-04-24T13:00:34;5.87;;;1.50;;
75823;SDS011;64457;51.976;9.834;2023-04-24T13:03:04;5.93;;;1.20;;
75823;SDS011;64457;51.976;9.834;2023-04-24T13:05:32;5.80;;;1.37;;
75823;SDS011;64457;51.976;9.834;2023-04-24T13:08:00;5.33;;;1.20;;
75823;SDS011;64457;51.976;9.834;2023-04-24T13:10:31;5.70;;;1.30;;
75823;SDS011;64457;51.976;9.834;2023-04-24T13:12:59;5.47;;;1.03;;
75823;SDS011;64457;51.976;9.834;2023-04-24T13:15:28;5.60;;;1.17;;
75823;SDS011;64457;51.976;9.834;2023-04-24T13:17:56;5.13;;;1.00;;
75823;SDS011;64457;51.976;9.834;2023-04-24T13:20:27;5.10;;;1.00;;
75823;SDS011;64457;51.976;9.834;2023-04-24T13:22:55;4.97;;;1.00;;
75823;SDS011;64457;51.976;9.834;2023-04-24T13:25:24;7.80;;;0.93;;
75823;SDS011;64457;51.976;9.834;2023-04-24T13:27:54;5.93;;;1.00;;
75823;SDS011;64457;51.976;9.834;2023-04-24T13:30:23;5.20;;;1.00;;
75823;SDS011;64457;51.976;9.834;2023-04-24T13:32:51;5.10;;;1.00;;
75823;SDS011;64457;51.976;9.834;2023-04-24T13:35:18;4.93;;;0.90;;
75823;SDS011;64457;51.976;9.834;2023-04-24T13:37:46;4.97;;;1.03;;
75823;SDS011;64457;51.976;9.834;2023-04-24T13:40:15;4.90;;;0.90;;
75823;SDS011;64457;51.976;9.834;2023-04-24T13:42:42;5.10;;;0.90;;
75823;SDS011;64457;51.976;9.834;2023-04-24T13:45:13;4.97;;;1.00;;
75823;SDS011;64457;51.976;9.834;2023-04-24T13:47:42;5.17;;;0.90;;
75823;SDS011;64457;51.976;9.834;2023-04-24T13:50:10;4.90;;;0.93;;
75823;SDS011;64457;51.976;9.834;2023-04-24T13:52:39;5.83;;;1.20;;
75823;SDS011;64457;51.976;9.834;2023-04-24T13:55:10;5.97;;;0.90;;
75823;SDS011;64457;51.976;9.834;2023-04-24T13:57:37;5.07;;;0.87;;
75823;SDS011;64457;51.976;9.834;2023-04-24T14:00:06;5.10;;;0.90;;
75823;SDS011;64457;51.976;9.834;2023-04-24T14:02:37;5.00;;;0.80;;
75823;SDS011;64457;51.976;9.834;2023-04-24T14:05:05;5.90;;;0.90;;
75823;SDS011;64457;51.976;9.834;2023-04-24T14:07:35;5.47;;;0.80;;
75823;SDS011;64457;51.976;9.834;2023-04-24T14:10:05;5.60;;;1.00;;
75823;SDS011;64457;51.976;9.834;2023-04-24T14:12:35;5.73;;;1.13;;
75823;SDS011;64457;51.976;9.834;2023-04-24T14:15:03;5.13;;;1.00;;
75823;SDS011;64457;51.976;9.834;2023-04-24T14:17:34;5.47;;;1.47;;
75823;SDS011;64457;51.976;9.834;2023-04-24T14:20:05;4.97;;;0.90;;
75823;SDS011;64457;51.976;9.834;2023-04-24T14:22:34;5.53;;;1.17;;
75823;SDS011;64457;51.976;9.834;2023-04-24T14:25:02;5.57;;;1.10;;
75823;SDS011;64457;51.976;9.834;2023-04-24T14:27:31;6.10;;;1.00;;
75823;SDS011;64457;51.976;9.834;2023-04-24T14:29:59;6.10;;;1.33;;
75823;SDS011;64457;51.976;9.834;2023-04-24T14:32:28;6.17;;;1.47;;
75823;SDS011;64457;51.976;9.834;2023-04-24T14:34:57;7.30;;;1.50;;
75823;SDS011;64457;51.976;9.834;2023-04-24T14:37:27;5.80;;;1.40;;
75823;SDS011;64457;51.976;9.834;2023-04-24T14:39:56;6.20;;;1.60;;
75823;SDS011;64457;51.976;9.834;2023-04-24T14:42:24;5.60;;;1.30;;
75823;SDS011;64457;51.976;9.834;2023-04-24T14:44:54;5.20;;;1.10;;
75823;SDS011;64457;51.976;9.834;2023-04-24T14:47:23;5.77;;;1.33;;
75823;SDS011;64457;51.976;9.834;2023-04-24T14:49:51;5.67;;;1.20;;
75823;SDS011;64457;51.976;9.834;2023-04-24T14:52:19;5.90;;;1.37;;
75823;SDS011;64457;51.976;9.834;2023-04-24T14:54:49;5.80;;;1.40;;
75823;SDS011;64457;51.976;9.834;2023-04-24T14:57:19;5.70;;;1.30;;
75823;SDS011;64457;51.976;9.834;2023-04-24T14:59:47;9.20;;;1.50;;
75823;SDS011;64457;51.976;9.834;2023-04-24T15:02:15;5.60;;;1.30;;